createdAt,value
2023-01-12T00:03:11.463Z,87.62
2023-01-12T00:08:14.833Z,88.23
2023-01-12T00:13:18.306Z,88.60
2023-01-12T00:18:22.049Z,88.29
2023-01-12T00:23:26.461Z,88.26
2023-01-12T00:28:29.692Z,88.74
2023-01-12T00:33:34.508Z,87.99
2023-01-12T00:38:38.458Z,87.00
2023-01-12T00:44:00.846Z,86.34
2023-01-12T00:49:05.151Z,86.22
2023-01-12T00:54:08.857Z,86.15
2023-01-12T00:59:12.649Z,85.98
2023-01-12T01:04:16.171Z,86.11
2023-01-12T01:09:19.897Z,85.71
2023-01-12T01:14:23.002Z,84.21
2023-01-12T01:19:27.006Z,83.80
2023-01-12T01:24:30.732Z,83.34
2023-01-12T01:29:34.223Z,83.88
2023-01-12T01:34:38.003Z,83.87
2023-01-12T01:39:41.461Z,83.96
2023-01-12T01:44:44.917Z,83.97
2023-01-12T01:49:51.876Z,83.92
2023-01-12T01:54:57.612Z,84.13
2023-01-12T02:00:02.159Z,84.53
2023-01-12T02:05:09.584Z,84.33
2023-01-12T02:10:13.488Z,83.35
2023-01-12T02:15:39.648Z,82.25
2023-01-12T02:20:54.916Z,82.17
2023-01-12T02:26:22.517Z,82.15
2023-01-12T02:31:28.460Z,81.75
2023-01-12T02:36:57.042Z,81.40
2023-01-12T02:42:27.755Z,79.87
2023-01-12T02:47:57.257Z,78.77
2023-01-12T02:53:07.524Z,79.70
2023-01-12T02:58:14.672Z,79.39
2023-01-12T03:03:19.954Z,79.11
2023-01-12T03:08:28.858Z,79.70
2023-01-12T03:13:36.245Z,79.22
2023-01-12T03:18:49.714Z,78.36
2023-01-12T03:24:15.338Z,80.01
2023-01-12T03:29:47.621Z,81.71
2023-01-12T03:34:51.086Z,82.60
2023-01-12T03:40:19.906Z,81.81
2023-01-12T03:45:50.047Z,82.38
2023-01-12T03:51:11.023Z,81.81
2023-01-12T03:56:16.323Z,81.01
2023-01-12T04:01:19.970Z,81.01
2023-01-12T04:06:23.836Z,80.49
2023-01-12T04:11:46.088Z,79.43
2023-01-12T04:16:49.515Z,78.60
2023-01-12T04:22:11.458Z,78.91
2023-01-12T04:27:16.525Z,76.90
2023-01-12T04:32:19.780Z,76.55
2023-01-12T04:37:23.460Z,76.68
2023-01-12T04:42:45.093Z,77.37
2023-01-12T04:47:48.683Z,78.08
2023-01-12T04:52:51.621Z,79.41
2023-01-12T04:57:54.881Z,79.86
2023-01-12T05:03:02.371Z,80.82
2023-01-12T05:08:25.684Z,80.86
2023-01-12T05:13:32.336Z,80.51
2023-01-12T05:18:35.435Z,80.24
2023-01-12T05:23:38.902Z,79.93
2023-01-12T05:28:41.956Z,79.83
2023-01-12T05:33:45.003Z,79.92
2023-01-12T05:38:48.719Z,80.22
2023-01-12T05:43:51.939Z,80.52
2023-01-12T05:48:56.815Z,80.69
2023-01-12T05:53:59.825Z,80.94
2023-01-12T05:59:07.644Z,81.29
2023-01-12T06:04:11.140Z,81.65
2023-01-12T06:09:14.374Z,83.14
2023-01-12T06:14:18.337Z,84.16
2023-01-12T06:19:21.850Z,84.62
2023-01-12T06:24:29.284Z,84.37
2023-01-12T06:29:32.103Z,83.58
2023-01-12T06:34:35.751Z,82.81
2023-01-12T06:39:38.738Z,83.28
2023-01-12T06:44:42.377Z,83.50
2023-01-12T06:49:45.324Z,83.57
2023-01-12T06:54:49.455Z,83.30
2023-01-12T06:59:53.098Z,82.87
2023-01-12T07:04:57.084Z,82.53
2023-01-12T07:10:00.144Z,82.58
2023-01-12T07:15:04.291Z,81.64
2023-01-12T07:20:07.682Z,81.24
2023-01-12T07:25:10.717Z,81.01
2023-01-12T07:30:14.599Z,79.86
2023-01-12T07:35:19.096Z,76.96
2023-01-12T07:40:23.378Z,60.85
2023-01-12T07:45:27.280Z,43.91
2023-01-12T07:50:31.050Z,38.97
2023-01-12T07:55:35.302Z,37.91
2023-01-12T08:00:38.841Z,36.38
2023-01-12T08:05:42.474Z,38.40
2023-01-12T08:10:50.318Z,44.63
2023-01-12T08:15:55.696Z,46.99
2023-01-12T08:21:02.921Z,48.49
2023-01-12T08:26:11.921Z,47.85
2023-01-12T08:36:27.138Z,39.73
2023-01-12T08:41:34.570Z,32.15
2023-01-12T08:46:47.772Z,32.48
2023-01-12T08:51:50.931Z,30.99
2023-01-12T08:56:55.093Z,28.61
2023-01-12T09:01:58.697Z,26.82
2023-01-12T09:07:01.863Z,25.54
2023-01-12T09:12:05.750Z,30.02
2023-01-12T09:17:09.295Z,31.73
2023-01-12T09:22:12.436Z,32.75
2023-01-12T09:27:16.077Z,37.71
2023-01-12T09:32:25.995Z,38.27
2023-01-12T09:37:32.319Z,39.24
2023-01-12T09:42:54.923Z,41.24
2023-01-12T09:48:03.146Z,39.76
2023-01-12T09:53:24.026Z,37.02
2023-01-12T09:59:11.238Z,36.75
2023-01-12T10:04:25.609Z,31.69
2023-01-12T10:09:40.861Z,29.54
2023-01-12T10:15:39.425Z,29.96
2023-01-12T10:20:45.202Z,35.09
2023-01-12T10:26:08.027Z,38.01
2023-01-12T10:31:33.811Z,37.26
2023-01-12T10:36:55.772Z,34.69
2023-01-12T10:42:40.099Z,33.91
2023-01-12T10:47:46.895Z,31.33
2023-01-12T10:53:01.062Z,33.30
2023-01-12T10:58:04.902Z,34.85
2023-01-12T11:03:32.745Z,32.87
2023-01-12T11:08:36.105Z,34.83
2023-01-12T11:13:39.517Z,35.24
2023-01-12T11:18:49.853Z,35.07
2023-01-12T11:23:58.818Z,37.40
2023-01-12T11:29:28.698Z,38.79
2023-01-12T11:34:40.340Z,37.21
2023-01-12T11:39:52.570Z,42.62
2023-01-12T11:45:15.526Z,43.61
2023-01-12T11:50:38.069Z,46.09
2023-01-12T11:56:07.002Z,49.83
2023-01-12T12:01:37.140Z,48.79
2023-01-12T12:06:53.895Z,51.50
2023-01-12T12:12:07.787Z,57.41
2023-01-12T12:17:19.796Z,63.16
2023-01-12T12:22:33.974Z,64.26
2023-01-12T12:28:08.040Z,67.42
2023-01-12T12:33:17.091Z,57.27
2023-01-12T12:38:41.646Z,51.39
2023-01-12T12:44:09.192Z,46.75
2023-01-12T12:49:19.179Z,45.64
2023-01-12T12:54:23.962Z,43.18
2023-01-12T12:59:33.611Z,40.12
2023-01-12T13:05:04.502Z,40.23
2023-01-12T13:10:23.020Z,43.66
2023-01-12T13:15:36.287Z,47.56
2023-01-12T13:20:55.969Z,50.52
2023-01-12T13:25:59.499Z,47.04
2023-01-12T13:31:06.671Z,50.63
2023-01-12T13:36:10.839Z,50.89
2023-01-12T13:41:14.415Z,51.91
2023-01-12T13:46:43.759Z,44.92
2023-01-12T13:51:58.512Z,38.68
2023-01-12T13:57:06.647Z,38.59
2023-01-12T14:02:19.283Z,36.75
2023-01-12T14:07:49.774Z,36.73
2023-01-12T14:13:07.741Z,35.06
2023-01-12T14:18:20.281Z,37.44
2023-01-12T14:23:27.256Z,35.40
2023-01-12T14:28:31.110Z,34.59
2023-01-12T14:33:37.362Z,36.03
2023-01-12T14:38:43.880Z,37.37
2023-01-12T14:44:05.679Z,43.71
2023-01-12T14:49:20.434Z,47.61
2023-01-12T14:54:30.597Z,50.28
2023-01-12T14:59:37.290Z,52.20
2023-01-12T15:05:10.940Z,53.79
2023-01-12T15:10:14.358Z,54.68
2023-01-12T15:15:53.543Z,55.36
2023-01-12T15:21:15.318Z,59.07
2023-01-12T15:26:19.523Z,63.22
2023-01-12T15:31:35.278Z,65.70
2023-01-12T15:36:38.762Z,68.02
2023-01-12T15:42:01.146Z,69.74
2023-01-12T15:47:04.439Z,71.11
2023-01-12T15:52:14.045Z,74.55
2023-01-12T15:57:18.022Z,76.66
2023-01-12T16:02:39.349Z,78.06
2023-01-12T16:07:43.438Z,82.11
2023-01-12T16:12:48.144Z,83.62
2023-01-12T16:17:52.313Z,84.04
2023-01-12T16:22:55.920Z,85.08
2023-01-12T16:28:01.121Z,85.98
2023-01-12T16:33:04.508Z,85.87
2023-01-12T16:38:08.571Z,86.10
2023-01-12T16:43:12.751Z,87.15
2023-01-12T16:48:16.666Z,87.03
2023-01-12T16:53:19.787Z,87.05
2023-01-12T16:58:22.839Z,87.19
2023-01-12T17:03:26.654Z,87.71
2023-01-12T17:08:29.712Z,89.21
2023-01-12T17:13:34.890Z,89.60
2023-01-12T17:18:43.144Z,89.45
2023-01-12T17:23:48.678Z,89.99
2023-01-12T17:28:52.261Z,90.68
2023-01-12T17:33:56.604Z,90.69
2023-01-12T17:39:01.850Z,91.59
2023-01-12T17:44:06.131Z,92.13
2023-01-12T17:49:10.621Z,92.85
2023-01-12T17:54:15.709Z,93.24
2023-01-12T17:59:21.614Z,94.60
2023-01-12T18:04:25.335Z,95.02
2023-01-12T18:09:29.089Z,94.89
2023-01-12T18:14:32.728Z,95.14
2023-01-12T18:19:36.440Z,94.63
2023-01-12T18:24:39.752Z,94.50
2023-01-12T18:29:42.877Z,94.38
2023-01-12T18:34:50.288Z,94.33
2023-01-12T18:39:56.126Z,93.31
2023-01-12T18:44:59.840Z,93.11
2023-01-12T18:50:21.652Z,93.21
2023-01-12T18:55:25.286Z,93.50
2023-01-12T19:00:29.129Z,93.52
2023-01-12T19:05:42.746Z,93.23
2023-01-12T19:10:46.251Z,93.10
2023-01-12T19:16:08.954Z,93.34
2023-01-12T19:21:31.507Z,93.30
2023-01-12T19:27:13.528Z,92.78
2023-01-12T19:32:18.320Z,92.83
2023-01-12T19:37:22.567Z,92.49
2023-01-12T19:42:46.311Z,92.64
2023-01-12T19:47:50.422Z,92.56
2023-01-12T19:52:55.957Z,92.78
2023-01-12T19:58:00.860Z,92.87
2023-01-12T20:03:06.005Z,92.16
2023-01-12T20:08:11.610Z,91.77
2023-01-12T20:13:15.083Z,91.70
2023-01-12T20:18:19.088Z,91.35
2023-01-12T20:23:22.270Z,91.50
2023-01-12T20:28:25.902Z,91.52
2023-01-12T20:33:29.060Z,91.35
2023-01-12T20:38:32.663Z,91.94
2023-01-12T20:43:35.934Z,92.14
2023-01-12T20:48:43.433Z,92.82
2023-01-12T20:53:46.864Z,92.63
2023-01-12T20:58:49.937Z,92.54
2023-01-12T21:03:54.056Z,92.90
2023-01-12T21:08:57.249Z,92.61
2023-01-12T21:14:01.222Z,92.61
2023-01-12T21:19:04.543Z,92.50
2023-01-12T21:24:07.973Z,92.80
2023-01-12T21:29:11.055Z,93.09
2023-01-12T21:34:14.111Z,93.66
2023-01-12T21:39:17.781Z,94.24
2023-01-12T21:44:21.872Z,95.05
2023-01-12T21:49:25.102Z,95.66
2023-01-12T21:54:29.182Z,96.35
2023-01-12T21:59:32.669Z,96.38
2023-01-12T22:04:36.161Z,96.94
2023-01-12T22:09:39.669Z,97.39
2023-01-12T22:14:43.078Z,98.02
2023-01-12T22:19:46.700Z,97.97
2023-01-12T22:24:49.825Z,98.45
2023-01-12T22:29:53.851Z,98.76
2023-01-12T22:34:58.936Z,99.06
2023-01-12T22:40:02.503Z,98.85
2023-01-12T22:45:06.466Z,98.76
2023-01-12T22:50:11.494Z,99.00
2023-01-12T22:55:14.787Z,99.96
2023-01-12T23:00:20.411Z,100.00
2023-01-12T23:05:23.436Z,100.00
2023-01-12T23:10:26.648Z,100.00
2023-01-12T23:15:31.446Z,100.00
2023-01-12T23:20:36.300Z,100.00
2023-01-12T23:25:39.759Z,100.00
2023-01-12T23:30:43.615Z,100.00
2023-01-12T23:35:46.635Z,100.00
2023-01-12T23:40:51.335Z,100.00
2023-01-12T23:45:54.475Z,100.00
2023-01-12T23:50:59.785Z,100.00
2023-01-12T23:56:09.003Z,100.00
